Time;durP1;ratioP1;P1;durP2;ratioP2;P2;SDS_P1;SDS_P2;PMS_P1;PMS_P2;Temp;Humidity;BMP_temperature;BMP_pressure;BME280_temperature;BME280_humidity;BME280_pressure;Samples;Min_cycle;Max_cycle;Signal;HPM_P1;HPM_P2
2022/05/31 00:00:08;;;;;;;4.47;2.75;;;11.40;96.40;;;;;;5027420;28;20037;-80
2022/05/31 00:02:33;;;;;;;6.28;3.10;;;11.40;96.40;;;;;;5045286;28;20555;-80
2022/05/31 00:04:59;;;;;;;5.22;2.42;;;11.40;96.50;;;;;;5027388;28;20060;-77
2022/05/31 00:07:25;;;;;;;5.00;2.80;;;11.40;96.50;;;;;;5028576;28;21843;-78
2022/05/31 00:09:50;;;;;;;5.05;3.13;;;11.30;96.60;;;;;;5025380;28;20470;-80
2022/05/31 00:12:16;;;;;;;5.88;3.35;;;11.30;96.50;;;;;;5025107;28;20029;-81
2022/05/31 00:14:42;;;;;;;3.60;2.55;;;11.30;96.50;;;;;;5041975;28;20453;-78
2022/05/31 00:17:08;;;;;;;5.07;3.08;;;11.20;96.60;;;;;;5027033;28;20375;-77
2022/05/31 00:19:34;;;;;;;5.97;3.33;;;11.20;96.70;;;;;;5029090;28;20088;-78
2022/05/31 00:22:11;;;;;;;4.38;2.72;;;11.20;96.70;;;;;;5020406;28;20389;-78
2022/05/31 00:24:39;;;;;;;4.85;3.45;;;11.10;96.70;;;;;;5027648;28;20025;-80
2022/05/31 00:27:05;;;;;;;2.75;2.50;;;11.10;96.80;;;;;;5024768;28;20051;-79
2022/05/31 00:29:31;;;;;;;4.25;2.70;;;11.10;96.90;;;;;;5024979;28;20032;-78
2022/05/31 00:31:59;;;;;;;5.53;2.92;;;11.20;96.90;;;;;;5026191;28;20159;-77
2022/05/31 00:34:25;;;;;;;5.03;2.92;;;11.10;97.00;;;;;;5017725;28;20052;-76
2022/05/31 00:36:51;;;;;;;4.50;2.75;;;11.10;97.00;;;;;;5027812;28;20072;-80
2022/05/31 00:39:17;;;;;;;6.50;2.55;;;11.20;97.10;;;;;;5021586;28;20034;-78
2022/05/31 00:41:43;;;;;;;4.25;2.92;;;11.20;97.10;;;;;;5024956;28;20078;-77
2022/05/31 00:44:19;;;;;;;5.32;2.88;;;11.20;97.00;;;;;;5025538;28;20413;-79
2022/05/31 00:46:55;;;;;;;3.28;2.50;;;11.20;97.00;;;;;;5024392;28;20601;-76
2022/05/31 00:49:31;;;;;;;4.45;2.80;;;11.20;97.20;;;;;;5026526;28;20029;-77
2022/05/31 00:52:05;;;;;;;5.15;3.00;;;11.20;97.10;;;;;;5030647;28;20030;-80
2022/05/31 00:54:36;;;;;;;4.63;2.78;;;11.30;97.20;;;;;;5035454;28;20063;-79
2022/05/31 00:57:02;;;;;;;3.22;2.30;;;11.30;97.30;;;;;;5032869;28;20083;-80
2022/05/31 00:59:43;;;;;;;4.15;2.70;;;11.30;97.50;;;;;;5030893;28;20060;-79
2022/05/31 01:02:10;;;;;;;4.75;2.70;;;11.30;97.40;;;;;;5027570;28;20104;-78
2022/05/31 01:04:41;;;;;;;4.38;2.88;;;11.30;97.30;;;;;;5034931;28;20014;-81
2022/05/31 01:07:06;;;;;;;5.50;3.85;;;11.30;97.30;;;;;;5022716;28;20441;-81
2022/05/31 01:09:32;;;;;;;5.85;2.97;;;11.30;97.20;;;;;;5029450;28;20026;-77
2022/05/31 01:11:59;;;;;;;3.75;2.60;;;11.30;97.20;;;;;;5022351;28;20108;-79
2022/05/31 01:14:26;;;;;;;5.40;3.03;;;11.30;97.20;;;;;;5025250;28;20041;-78
2022/05/31 01:17:04;;;;;;;5.72;2.92;;;11.40;97.20;;;;;;5027829;28;20533;-79
2022/05/31 01:22:17;;;;;;;6.20;2.88;;;11.40;97.10;;;;;;5030116;28;20119;-80
2022/05/31 01:24:49;;;;;;;5.28;3.38;;;11.40;97.00;;;;;;5026118;28;20152;-77
2022/05/31 01:27:32;;;;;;;6.05;2.95;;;11.40;97.10;;;;;;5020923;28;20473;-80
2022/05/31 01:30:01;;;;;;;8.70;3.13;;;11.40;97.20;;;;;;5025892;28;20052;-81
2022/05/31 01:32:26;;;;;;;5.50;3.05;;;11.30;97.20;;;;;;5024255;28;20648;-80
2022/05/31 01:35:04;;;;;;;4.13;2.80;;;11.30;97.10;;;;;;5027004;28;20057;-78
2022/05/31 01:37:56;;;;;;;5.20;2.45;;;11.30;97.10;;;;;;5018340;28;20072;-78
2022/05/31 01:40:36;;;;;;;4.95;2.65;;;11.30;97.10;;;;;;5023776;28;20045;-78
2022/05/31 01:43:02;;;;;;;3.03;2.42;;;11.30;97.10;;;;;;5023620;28;20025;-78
2022/05/31 01:45:37;;;;;;;5.47;2.65;;;11.30;97.10;;;;;;5020684;28;20393;-82
2022/05/31 01:48:05;;;;;;;3.30;2.88;;;11.30;97.20;;;;;;5026863;28;20517;-79
2022/05/31 01:50:32;;;;;;;4.40;2.90;;;11.20;97.20;;;;;;5041992;28;20032;-78
2022/05/31 01:52:59;;;;;;;5.32;3.20;;;11.20;97.10;;;;;;5023632;28;20057;-81
2022/05/31 01:55:25;;;;;;;5.38;2.95;;;11.20;97.10;;;;;;5025145;28;20461;-80
2022/05/31 01:57:55;;;;;;;5.78;3.33;;;11.10;97.10;;;;;;5023794;28;20037;-78
2022/05/31 02:00:21;;;;;;;4.28;3.25;;;11.10;97.00;;;;;;5022982;28;20038;-78
2022/05/31 02:02:51;;;;;;;6.88;3.50;;;11.10;97.00;;;;;;5025511;28;20056;-80
2022/05/31 02:05:17;;;;;;;5.38;3.17;;;11.10;97.10;;;;;;5027712;28;20469;-82
2022/05/31 02:07:52;;;;;;;8.25;3.13;;;11.10;97.10;;;;;;5028060;28;20033;-82
2022/05/31 02:10:17;;;;;;;6.43;3.60;;;11.10;97.10;;;;;;5028410;28;20553;-78
2022/05/31 02:12:43;;;;;;;8.77;3.88;;;11.10;97.00;;;;;;5033860;28;20112;-79
2022/05/31 02:15:09;;;;;;;5.50;2.90;;;11.10;97.00;;;;;;5028777;28;20457;-79
2022/05/31 02:17:34;;;;;;;4.90;3.50;;;11.10;97.00;;;;;;5031738;28;20033;-79
2022/05/31 02:20:00;;;;;;;7.03;3.55;;;11.00;97.00;;;;;;5030912;28;20029;-79
2022/05/31 02:22:27;;;;;;;6.25;3.40;;;11.00;97.00;;;;;;5030834;28;20041;-78
2022/05/31 02:24:52;;;;;;;7.55;4.03;;;10.90;97.10;;;;;;5026938;28;20025;-81
2022/05/31 02:27:18;;;;;;;7.57;3.08;;;10.90;97.30;;;;;;5031245;28;20329;-79
2022/05/31 02:29:44;;;;;;;5.25;3.05;;;10.80;97.30;;;;;;5031080;28;20029;-79
2022/05/31 02:32:12;;;;;;;5.45;3.95;;;10.80;97.50;;;;;;5020071;28;20057;-83
2022/05/31 02:34:41;;;;;;;5.63;3.35;;;10.70;97.50;;;;;;5031141;28;20040;-80
2022/05/31 02:37:07;;;;;;;4.53;3.60;;;10.70;97.60;;;;;;5028142;28;20067;-79
2022/05/31 02:39:33;;;;;;;7.53;3.50;;;10.60;97.60;;;;;;5030476;28;20025;-79
2022/05/31 02:42:00;;;;;;;7.47;3.85;;;10.60;97.60;;;;;;5031243;28;20068;-80
2022/05/31 02:44:26;;;;;;;7.05;3.55;;;10.50;97.70;;;;;;5031130;28;20026;-79
2022/05/31 02:46:52;;;;;;;4.55;3.63;;;10.50;97.80;;;;;;5025390;28;20036;-79
2022/05/31 02:49:18;;;;;;;5.47;3.80;;;10.50;97.90;;;;;;5029479;28;20577;-80
2022/05/31 02:51:46;;;;;;;5.70;3.88;;;10.40;98.00;;;;;;5030502;28;20044;-78
2022/05/31 02:54:13;;;;;;;8.27;3.63;;;10.40;98.10;;;;;;5030414;28;20036;-80
2022/05/31 02:56:39;;;;;;;4.75;3.55;;;10.30;98.00;;;;;;5036971;28;20029;-81
2022/05/31 02:59:08;;;;;;;7.35;3.60;;;10.30;98.20;;;;;;5028856;28;20036;-79
2022/05/31 03:01:36;;;;;;;6.95;4.03;;;10.30;98.30;;;;;;5031562;28;20063;-81
2022/05/31 03:04:02;;;;;;;5.07;3.42;;;10.20;98.30;;;;;;5037668;28;20064;-79
2022/05/31 03:06:28;;;;;;;8.63;4.22;;;10.20;98.30;;;;;;5028886;28;20382;-78
2022/05/31 03:08:53;;;;;;;6.82;4.75;;;10.10;98.30;;;;;;5031753;28;20033;-80
2022/05/31 03:11:41;;;;;;;8.48;4.07;;;10.10;98.40;;;;;;5044923;28;20043;-80
2022/05/31 03:14:13;;;;;;;4.97;3.97;;;10.10;98.50;;;;;;5016858;28;22028;-78
2022/05/31 03:16:41;;;;;;;5.30;4.10;;;10.10;98.60;;;;;;5031032;28;20075;-80
2022/05/31 03:19:12;;;;;;;6.65;4.00;;;10.10;98.60;;;;;;5030272;28;20099;-80
2022/05/31 03:21:45;;;;;;;6.40;3.95;;;10.00;98.70;;;;;;5029871;28;20026;-79
2022/05/31 03:24:21;;;;;;;5.95;4.43;;;10.00;98.80;;;;;;5028754;28;20084;-79
2022/05/31 03:26:50;;;;;;;5.30;3.95;;;10.10;98.80;;;;;;5040486;28;20458;-79
2022/05/31 03:29:16;;;;;;;6.07;4.30;;;10.00;98.70;;;;;;5040278;28;20087;-83
2022/05/31 03:31:42;;;;;;;4.32;3.42;;;10.00;98.70;;;;;;5028375;28;20052;-79
2022/05/31 03:34:07;;;;;;;4.88;3.45;;;10.00;98.70;;;;;;5029961;28;20425;-79
2022/05/31 03:36:34;;;;;;;8.38;4.15;;;10.00;98.70;;;;;;5029389;28;20047;-81
2022/05/31 03:39:00;;;;;;;6.82;3.63;;;10.00;98.70;;;;;;5033684;28;20521;-79
2022/05/31 03:41:25;;;;;;;6.05;3.55;;;10.00;98.60;;;;;;5028793;28;20404;-80
2022/05/31 03:43:51;;;;;;;5.90;3.15;;;10.00;98.60;;;;;;5018137;28;20026;-79
2022/05/31 03:46:17;;;;;;;6.32;3.38;;;10.00;98.70;;;;;;5030351;28;20091;-80
2022/05/31 03:48:42;;;;;;;5.43;3.42;;;10.10;98.90;;;;;;5029509;28;20084;-79
2022/05/31 03:51:11;;;;;;;6.43;3.92;;;10.10;98.90;;;;;;5033616;28;20489;-82
2022/05/31 03:53:37;;;;;;;4.72;3.22;;;10.10;99.00;;;;;;5031452;28;20025;-79
2022/05/31 03:56:05;;;;;;;7.93;3.45;;;10.10;99.00;;;;;;5030209;28;20033;-82
2022/05/31 03:58:31;;;;;;;5.68;3.67;;;10.20;98.90;;;;;;5031163;28;20108;-80
2022/05/31 04:00:57;;;;;;;7.82;3.38;;;10.20;98.90;;;;;;5029981;28;20029;-80
2022/05/31 04:03:23;;;;;;;7.32;3.78;;;10.20;99.00;;;;;;5030602;28;20378;-79
2022/05/31 04:05:49;;;;;;;3.85;2.85;;;10.20;99.00;;;;;;5032947;28;20396;-79
2022/05/31 04:08:15;;;;;;;7.47;3.95;;;10.30;98.90;;;;;;5021661;28;20389;-79
2022/05/31 04:10:43;;;;;;;4.10;3.63;;;10.30;98.90;;;;;;5023297;28;20045;-80
2022/05/31 04:13:09;;;;;;;4.00;3.17;;;10.30;98.90;;;;;;5020367;28;20030;-82
2022/05/31 04:15:35;;;;;;;9.80;3.08;;;10.40;98.90;;;;;;5019250;28;20037;-80
2022/05/31 04:18:02;;;;;;;5.65;2.80;;;10.50;98.80;;;;;;5022923;28;20068;-78
2022/05/31 04:20:28;;;;;;;7.40;3.58;;;10.50;98.60;;;;;;5029395;28;20489;-79
2022/05/31 04:23:58;;;;;;;4.53;3.05;;;10.50;98.60;;;;;;5018124;28;20034;-79
2022/05/31 04:25:43;;;;;;;5.47;3.17;;;10.60;98.60;;;;;;5023628;28;20037;-79
2022/05/31 04:28:09;;;;;;;3.88;3.47;;;10.60;98.60;;;;;;5022441;28;20071;-80
2022/05/31 04:30:35;;;;;;;6.45;3.10;;;10.70;98.60;;;;;;5022059;28;20033;-79
2022/05/31 04:33:01;;;;;;;4.72;3.10;;;10.70;98.50;;;;;;5023955;28;20037;-79
2022/05/31 04:35:27;;;;;;;5.55;3.05;;;10.80;98.60;;;;;;5020973;28;20037;-78
2022/05/31 04:37:52;;;;;;;4.55;3.35;;;10.80;98.50;;;;;;5020003;28;20057;-82
2022/05/31 04:40:18;;;;;;;5.10;3.03;;;10.90;98.50;;;;;;5020682;28;20632;-79
2022/05/31 04:42:44;;;;;;;2.83;2.50;;;10.90;98.50;;;;;;5018870;28;20030;-78
2022/05/31 04:45:09;;;;;;;3.25;2.95;;;11.00;98.50;;;;;;5018315;28;20048;-79
2022/05/31 04:47:35;;;;;;;8.95;3.28;;;11.10;98.40;;;;;;5016584;28;20037;-80
2022/05/31 04:50:15;;;;;;;4.97;2.97;;;11.20;98.20;;;;;;5018044;28;20041;-79
2022/05/31 04:52:40;;;;;;;3.40;2.75;;;11.30;98.10;;;;;;5045695;28;20044;-77
2022/05/31 04:55:06;;;;;;;8.18;3.05;;;11.40;97.90;;;;;;5028640;28;20033;-78
2022/05/31 04:57:32;;;;;;;5.40;3.47;;;11.50;97.80;;;;;;5023525;28;20021;-79
2022/05/31 04:59:57;;;;;;;3.95;2.90;;;11.60;97.50;;;;;;5025085;28;20416;-83
2022/05/31 05:02:23;;;;;;;5.15;2.25;;;11.70;97.40;;;;;;5026787;28;20037;-78
2022/05/31 05:04:48;;;;;;;3.97;2.88;;;11.90;97.20;;;;;;5024367;28;20500;-78
2022/05/31 05:07:14;;;;;;;4.47;2.50;;;12.00;97.00;;;;;;5018742;28;20033;-78
2022/05/31 05:09:39;;;;;;;4.05;3.03;;;12.10;96.90;;;;;;5021274;28;20044;-78
2022/05/31 05:12:05;;;;;;;6.05;2.67;;;12.20;96.70;;;;;;5022020;28;20064;-84
2022/05/31 05:14:31;;;;;;;5.03;2.75;;;12.30;96.20;;;;;;5026384;28;20033;-80
2022/05/31 05:16:56;;;;;;;4.22;3.45;;;12.30;96.00;;;;;;5019306;28;20534;-79
2022/05/31 05:19:22;;;;;;;5.32;2.65;;;12.40;96.20;;;;;;5024273;28;20613;-79
2022/05/31 05:21:48;;;;;;;4.47;2.88;;;12.40;96.00;;;;;;5018167;28;20022;-79
2022/05/31 05:24:13;;;;;;;8.15;4.10;;;12.50;96.10;;;;;;5027553;28;20043;-81
2022/05/31 05:26:39;;;;;;;9.27;4.05;;;12.50;96.20;;;;;;5025775;28;20118;-78
2022/05/31 05:31:53;;;;;;;9.70;4.75;;;12.70;96.20;;;;;;5022090;28;20025;-79
2022/05/31 05:34:19;;;;;;;8.63;4.50;;;12.70;96.20;;;;;;5027274;28;20032;-78
2022/05/31 05:36:45;;;;;;;9.82;4.30;;;12.80;96.10;;;;;;5022844;28;20345;-79
2022/05/31 05:39:11;;;;;;;5.70;4.30;;;12.90;95.90;;;;;;5026657;28;20501;-79
2022/05/31 05:41:37;;;;;;;5.65;3.97;;;12.90;95.70;;;;;;5020049;28;20033;-79
2022/05/31 05:44:02;;;;;;;6.32;3.58;;;12.90;95.80;;;;;;5027103;28;20033;-80
2022/05/31 05:46:28;;;;;;;11.48;3.85;;;12.90;95.80;;;;;;5031053;28;20107;-80
2022/05/31 05:48:55;;;;;;;4.88;3.15;;;12.90;96.10;;;;;;5024962;28;20025;-77
2022/05/31 05:51:23;;;;;;;7.47;3.80;;;12.90;96.10;;;;;;5025028;28;20121;-79
2022/05/31 05:53:50;;;;;;;6.85;3.00;;;12.90;95.70;;;;;;5019116;28;20033;-79
2022/05/31 05:56:17;;;;;;;3.45;2.83;;;13.00;95.80;;;;;;5030377;28;20087;-81
2022/05/31 05:58:43;;;;;;;7.25;3.47;;;13.10;95.60;;;;;;5032016;28;20031;-78
2022/05/31 06:01:47;;;;;;;4.78;3.40;;;13.20;95.30;;;;;;5029997;28;20040;-81
2022/05/31 06:04:21;;;;;;;5.18;3.40;;;13.30;95.10;;;;;;4999610;28;20117;-78
2022/05/31 06:06:51;;;;;;;5.50;3.47;;;13.40;94.60;;;;;;5027407;28;20489;-78
2022/05/31 06:09:21;;;;;;;4.40;3.25;;;13.40;94.50;;;;;;5011751;28;20045;-78
2022/05/31 06:11:55;;;;;;;4.85;3.05;;;13.50;94.40;;;;;;5011502;28;20029;-78
2022/05/31 06:14:29;;;;;;;3.47;2.78;;;13.60;94.10;;;;;;5024921;28;20034;-78
2022/05/31 06:16:59;;;;;;;6.68;2.95;;;13.70;94.00;;;;;;5027478;28;20033;-82
2022/05/31 06:19:35;;;;;;;5.15;2.70;;;13.70;93.80;;;;;;5029815;28;20088;-78
2022/05/31 06:22:03;;;;;;;6.43;2.97;;;13.70;94.00;;;;;;5018736;28;20451;-77
2022/05/31 06:24:30;;;;;;;4.38;2.58;;;13.80;93.50;;;;;;5026921;28;20035;-78
2022/05/31 06:26:56;;;;;;;3.85;2.45;;;13.90;93.20;;;;;;5030247;28;20103;-77
2022/05/31 06:29:21;;;;;;;4.72;2.33;;;14.00;92.30;;;;;;5030204;28;20535;-78
2022/05/31 06:31:47;;;;;;;4.55;2.63;;;14.10;92.20;;;;;;5030434;28;20033;-79
2022/05/31 06:34:12;;;;;;;4.95;2.33;;;14.30;92.30;;;;;;5019615;28;20501;-80
2022/05/31 06:36:39;;;;;;;2.70;1.75;;;14.40;92.00;;;;;;5029900;28;20033;-81
2022/05/31 06:39:05;;;;;;;3.65;2.40;;;14.50;91.80;;;;;;5029124;28;20027;-78
2022/05/31 06:41:31;;;;;;;3.67;1.92;;;14.60;92.20;;;;;;5029534;28;20104;-80
2022/05/31 06:43:59;;;;;;;6.38;2.50;;;14.70;91.80;;;;;;5023155;28;20109;-78
2022/05/31 06:46:24;;;;;;;3.97;2.15;;;14.80;91.30;;;;;;5028763;28;20033;-80
2022/05/31 06:48:50;;;;;;;4.13;2.38;;;14.80;91.30;;;;;;5030710;28;20147;-79
2022/05/31 06:56:48;;;;;;;3.35;1.98;;;15.00;91.40;;;;;;5016245;28;20466;-78
2022/05/31 06:56:54;;;;;;;7.40;2.17;;;15.30;90.90;;;;;;5025451;28;20075;-80
2022/05/31 06:59:20;;;;;;;2.47;1.70;;;15.50;90.40;;;;;;5025699;28;20082;-79
2022/05/31 07:01:47;;;;;;;2.88;1.58;;;15.60;89.80;;;;;;5030183;28;20045;-80
2022/05/31 07:04:13;;;;;;;5.85;1.85;;;15.80;88.90;;;;;;5030014;28;20026;-78
2022/05/31 07:06:38;;;;;;;3.00;1.67;;;15.90;90.00;;;;;;5008611;28;20029;-79
2022/05/31 07:09:04;;;;;;;3.47;2.10;;;16.00;89.30;;;;;;5024737;28;20061;-79
2022/05/31 07:11:29;;;;;;;3.00;1.67;;;16.20;88.90;;;;;;5022374;28;20044;-78
2022/05/31 07:13:55;;;;;;;5.03;1.63;;;16.40;89.50;;;;;;5031579;28;20037;-78
2022/05/31 07:16:21;;;;;;;3.03;2.25;;;16.50;87.40;;;;;;5033863;28;20029;-78
2022/05/31 07:18:46;;;;;;;7.97;1.45;;;16.80;86.10;;;;;;5031060;28;20429;-81
2022/05/31 07:21:12;;;;;;;2.22;1.58;;;16.90;84.70;;;;;;5027962;28;20558;-77
2022/05/31 07:23:40;;;;;;;3.67;1.48;;;17.00;85.10;;;;;;5028839;28;20429;-78
2022/05/31 07:26:07;;;;;;;2.92;2.03;;;17.10;84.70;;;;;;5028237;28;20022;-81
2022/05/31 07:28:33;;;;;;;1.88;1.27;;;17.10;85.20;;;;;;5028019;28;20026;-78
2022/05/31 07:31:00;;;;;;;9.90;2.30;;;17.20;84.60;;;;;;5021278;28;20036;-77
2022/05/31 07:33:26;;;;;;;4.45;1.98;;;17.30;83.50;;;;;;5011078;28;20030;-77
2022/05/31 07:35:51;;;;;;;3.08;1.40;;;17.40;83.60;;;;;;5008875;28;20034;-79
2022/05/31 07:38:19;;;;;;;2.35;1.60;;;17.60;83.90;;;;;;5024450;28;20084;-77
2022/05/31 07:40:45;;;;;;;7.65;1.85;;;17.60;84.50;;;;;;5029898;28;20040;-77
2022/05/31 07:43:11;;;;;;;3.95;1.85;;;17.60;82.80;;;;;;5017152;28;20034;-77
2022/05/31 07:45:37;;;;;;;5.65;2.03;;;17.60;83.50;;;;;;5008165;28;20177;-78
2022/05/31 07:48:04;;;;;;;4.55;1.90;;;17.60;84.30;;;;;;5025020;28;20037;-77
2022/05/31 07:50:29;;;;;;;3.90;1.52;;;17.60;85.00;;;;;;5029850;28;20052;-76
2022/05/31 07:52:55;;;;;;;4.38;1.85;;;17.60;86.90;;;;;;5025518;28;20033;-75
2022/05/31 07:55:21;;;;;;;7.35;1.45;;;17.60;85.70;;;;;;5028745;28;20029;-78
2022/05/31 08:00:31;;;;;;;3.58;2.30;;;17.90;84.90;;;;;;5029411;28;20552;-78
2022/05/31 08:02:56;;;;;;;2.67;1.48;;;18.00;86.20;;;;;;5017018;28;20078;-77
2022/05/31 08:05:22;;;;;;;2.30;1.98;;;18.20;84.70;;;;;;5026009;28;20026;-79
2022/05/31 08:07:49;;;;;;;2.65;1.50;;;18.40;82.70;;;;;;5031562;28;20455;-78
2022/05/31 08:10:17;;;;;;;2.63;1.70;;;18.40;82.00;;;;;;5031166;28;20107;-77
2022/05/31 08:12:42;;;;;;;5.35;1.92;;;18.50;83.30;;;;;;5031770;28;20041;-79
2022/05/31 08:15:09;;;;;;;3.97;2.05;;;18.60;81.50;;;;;;5031985;28;20030;-77
2022/05/31 08:17:34;;;;;;;3.03;1.58;;;18.80;80.40;;;;;;5022256;28;20098;-78
2022/05/31 08:20:00;;;;;;;4.05;1.60;;;19.00;80.20;;;;;;5025572;28;20100;-79
2022/05/31 08:22:25;;;;;;;3.58;1.60;;;19.00;79.70;;;;;;5027188;28;20708;-76
2022/05/31 08:24:51;;;;;;;2.80;1.80;;;19.20;80.40;;;;;;5009325;28;20038;-76
2022/05/31 08:27:16;;;;;;;4.00;2.00;;;19.30;78.50;;;;;;5012398;28;20427;-78
2022/05/31 08:29:42;;;;;;;3.65;1.80;;;19.30;78.50;;;;;;5024351;28;20037;-77
2022/05/31 08:32:08;;;;;;;3.85;1.88;;;19.40;78.90;;;;;;5019721;28;20033;-78
2022/05/31 08:34:34;;;;;;;6.50;2.15;;;19.50;79.30;;;;;;5026530;28;20040;-78
2022/05/31 08:36:59;;;;;;;3.83;1.30;;;19.60;77.20;;;;;;5026453;28;20148;-77
2022/05/31 08:39:25;;;;;;;7.00;1.58;;;19.80;79.40;;;;;;5026904;28;20144;-77
2022/05/31 08:42:05;;;;;;;3.17;1.50;;;19.90;79.20;;;;;;5021204;28;20029;-78
2022/05/31 08:44:36;;;;;;;2.83;1.48;;;20.10;77.50;;;;;;5026175;28;20033;-78
2022/05/31 08:47:31;;;;;;;2.35;1.25;;;20.20;76.30;;;;;;5026157;28;20035;-79
2022/05/31 08:52:55;;;;;;;3.67;1.90;;;20.30;75.50;;;;;;5008471;28;20092;-77
2022/05/31 08:58:16;;;;;;;2.88;1.60;;;20.00;75.20;;;;;;5023505;28;20072;-79
2022/05/31 09:00:45;;;;;;;1.50;0.90;;;20.20;77.10;;;;;;5023085;28;20065;-79
2022/05/31 09:03:19;;;;;;;3.67;1.20;;;20.40;75.90;;;;;;5006809;28;20075;-80
2022/05/31 09:06:05;;;;;;;4.32;1.20;;;20.60;74.40;;;;;;5014651;28;20391;-82
2022/05/31 09:08:56;;;;;;;2.60;1.38;;;20.90;70.90;;;;;;5027862;28;20080;-79
2022/05/31 09:11:39;;;;;;;2.63;1.27;;;21.10;72.40;;;;;;5038016;28;20021;-79
2022/05/31 09:14:07;;;;;;;2.00;1.30;;;21.30;75.70;;;;;;5008403;28;20061;-79
2022/05/31 09:16:44;;;;;;;2.00;1.15;;;21.40;72.40;;;;;;5025167;28;20045;-79
2022/05/31 09:19:15;;;;;;;1.95;1.13;;;21.60;71.80;;;;;;5025844;28;20033;-78
2022/05/31 09:21:45;;;;;;;1.73;1.27;;;21.70;72.20;;;;;;5026266;28;20091;-81
2022/05/31 09:24:16;;;;;;;2.70;1.17;;;21.70;71.60;;;;;;5021527;28;20053;-77
2022/05/31 09:27:08;;;;;;;1.27;0.88;;;21.90;69.90;;;;;;5027045;28;20455;-78
2022/05/31 09:29:50;;;;;;;3.05;1.40;;;22.10;69.70;;;;;;5027441;28;20163;-80
2022/05/31 09:32:40;;;;;;;2.20;0.80;;;22.30;68.90;;;;;;5026096;28;20061;-78
2022/05/31 09:35:19;;;;;;;1.45;0.82;;;22.40;67.00;;;;;;5026230;28;20025;-80
2022/05/31 09:38:07;;;;;;;2.33;1.00;;;22.50;68.00;;;;;;5027805;28;20029;-78
2022/05/31 09:40:53;;;;;;;3.17;1.20;;;22.50;64.60;;;;;;5025897;28;20032;-80
2022/05/31 09:43:39;;;;;;;1.65;1.00;;;22.40;67.40;;;;;;5008288;28;20022;-79
2022/05/31 09:46:31;;;;;;;1.50;1.20;;;22.50;71.70;;;;;;5007431;28;20406;-79
2022/05/31 09:48:58;;;;;;;2.60;1.35;;;22.50;67.80;;;;;;5028616;28;20470;-79
2022/05/31 09:51:32;;;;;;;6.65;1.23;;;22.60;68.10;;;;;;5027638;28;20037;-78
2022/05/31 09:59:29;;;;;;;2.53;0.95;;;22.60;65.20;;;;;;5026894;28;20048;-78
2022/05/31 10:02:04;;;;;;;1.40;0.80;;;22.70;67.30;;;;;;5026136;28;20120;-81
2022/05/31 10:04:31;;;;;;;2.80;1.13;;;22.90;65.00;;;;;;5024358;28;20030;-77
2022/05/31 10:07:03;;;;;;;1.73;1.17;;;23.00;62.00;;;;;;5026426;28;20852;-78
2022/05/31 10:09:30;;;;;;;2.25;1.27;;;23.00;65.70;;;;;;5027250;28;20034;-78
2022/05/31 10:12:09;;;;;;;2.90;0.88;;;22.90;63.50;;;;;;5018687;28;20037;-79
2022/05/31 10:14:36;;;;;;;2.75;1.00;;;23.00;63.90;;;;;;5043578;28;20044;-79
2022/05/31 10:17:26;;;;;;;1.40;0.90;;;22.80;61.80;;;;;;5026704;28;20061;-78
2022/05/31 10:20:18;;;;;;;1.20;0.80;;;22.80;63.90;;;;;;5025456;28;20433;-81
2022/05/31 10:22:51;;;;;;;0.95;0.75;;;23.00;63.50;;;;;;5025954;28;20030;-77
2022/05/31 10:25:21;;;;;;;3.33;0.90;;;23.30;64.80;;;;;;5025386;28;20124;-80
2022/05/31 10:27:47;;;;;;;1.48;0.70;;;23.50;61.70;;;;;;5027236;28;20087;-77
2022/05/31 10:30:20;;;;;;;2.65;0.80;;;23.70;57.90;;;;;;5007996;28;20037;-77
2022/05/31 10:32:48;;;;;;;1.88;0.68;;;23.80;56.60;;;;;;5029695;28;20079;-77
2022/05/31 10:35:18;;;;;;;2.47;0.70;;;23.90;57.20;;;;;;5030175;28;20022;-77
2022/05/31 10:37:55;;;;;;;1.85;0.95;;;24.10;60.40;;;;;;5016632;28;20036;-77
2022/05/31 10:40:23;;;;;;;1.70;0.85;;;24.10;57.20;;;;;;5046150;28;20100;-76
2022/05/31 10:42:53;;;;;;;1.77;1.08;;;24.10;58.00;;;;;;5028039;28;20502;-77
2022/05/31 10:45:22;;;;;;;6.25;0.80;;;24.30;57.90;;;;;;5028908;28;20025;-77
2022/05/31 10:47:48;;;;;;;1.48;1.00;;;24.40;57.90;;;;;;5030241;28;20033;-76
2022/05/31 10:50:14;;;;;;;1.67;0.77;;;24.60;58.50;;;;;;5026057;28;20140;-78
2022/05/31 10:52:52;;;;;;;2.42;0.70;;;24.70;58.90;;;;;;5029993;28;20458;-78
2022/05/31 10:55:47;;;;;;;1.70;1.00;;;24.90;57.40;;;;;;5010894;28;20038;-80
2022/05/31 10:58:32;;;;;;;2.28;0.57;;;24.80;54.80;;;;;;5019262;28;20030;-78
2022/05/31 11:01:21;;;;;;;1.00;0.50;;;24.70;57.00;;;;;;5015128;28;20049;-77
2022/05/31 11:03:53;;;;;;;2.20;0.70;;;24.60;56.30;;;;;;5010372;28;20040;-82
2022/05/31 11:06:43;;;;;;;2.40;0.77;;;24.50;55.50;;;;;;5016717;28;20536;-82
2022/05/31 11:12:36;;;;;;;1.55;0.60;;;23.90;57.90;;;;;;5017521;28;20071;-82
2022/05/31 11:15:26;;;;;;;1.92;0.82;;;23.90;56.20;;;;;;5028999;28;20022;-78
2022/05/31 11:18:47;;;;;;;1.45;0.55;;;24.00;56.00;;;;;;5018342;28;20025;-82
2022/05/31 11:21:54;;;;;;;2.05;0.68;;;24.30;59.20;;;;;;5007501;28;20030;-77
2022/05/31 11:24:43;;;;;;;2.42;0.63;;;24.70;57.30;;;;;;5003615;28;20096;-83
2022/05/31 11:27:40;;;;;;;1.23;0.60;;;24.90;55.10;;;;;;5027533;28;20124;-78
2022/05/31 11:30:21;;;;;;;1.23;0.50;;;24.90;52.90;;;;;;5029175;28;20120;-79
2022/05/31 11:33:02;;;;;;;0.47;0.40;;;24.90;54.70;;;;;;5028257;28;20025;-80
2022/05/31 11:35:38;;;;;;;5.47;0.60;;;24.80;55.20;;;;;;5029157;28;20040;-81
2022/05/31 11:38:25;;;;;;;1.67;0.57;;;25.00;54.40;;;;;;5031562;28;20029;-80
2022/05/31 11:41:02;;;;;;;0.90;0.50;;;25.10;53.60;;;;;;5010546;28;20061;-79
2022/05/31 11:43:51;;;;;;;1.15;0.50;;;25.20;53.30;;;;;;5026681;28;20072;-82
2022/05/31 11:46:26;;;;;;;4.20;0.60;;;25.30;52.20;;;;;;5026995;28;20030;-84
2022/05/31 11:48:59;;;;;;;1.55;0.70;;;25.40;54.70;;;;;;5016199;28;20083;-80
2022/05/31 11:51:44;;;;;;;1.90;0.40;;;25.40;54.90;;;;;;5015869;28;20038;-86
2022/05/31 11:54:28;;;;;;;1.08;0.60;;;25.40;56.30;;;;;;5008447;28;20060;-79
2022/05/31 11:56:54;;;;;;;1.20;0.60;;;25.30;54.10;;;;;;5039112;28;20300;-79
2022/05/31 11:59:34;;;;;;;1.13;0.57;;;25.30;52.50;;;;;;5026425;28;20040;-82
2022/05/31 12:02:36;;;;;;;1.17;0.60;;;25.40;57.20;;;;;;5027683;28;20028;-81
2022/05/31 12:05:37;;;;;;;1.48;0.70;;;25.40;51.50;;;;;;5028284;28;20037;-79
2022/05/31 12:08:15;;;;;;;1.17;0.65;;;25.40;52.90;;;;;;5014998;28;20094;-76
2022/05/31 12:11:04;;;;;;;2.17;1.10;;;25.20;54.80;;;;;;5029148;28;20105;-75
2022/05/31 12:13:33;;;;;;;1.58;0.60;;;25.00;53.10;;;;;;5029364;28;20059;-77
2022/05/31 12:15:59;;;;;;;1.00;0.70;;;24.90;56.20;;;;;;5028490;28;20033;-77
2022/05/31 12:18:41;;;;;;;0.93;0.50;;;24.60;53.20;;;;;;5026620;28;20037;-77
2022/05/31 12:21:15;;;;;;;2.50;0.70;;;24.70;52.60;;;;;;5027582;28;20029;-77
2022/05/31 12:23:59;;;;;;;0.70;0.50;;;24.80;54.40;;;;;;5028944;28;20029;-77
2022/05/31 12:26:38;;;;;;;1.88;0.52;;;24.80;51.40;;;;;;5027860;28;20044;-81
2022/05/31 12:29:06;;;;;;;2.05;0.60;;;25.00;51.70;;;;;;5026875;28;20037;-79
2022/05/31 12:31:34;;;;;;;1.40;0.50;;;25.30;54.90;;;;;;5016049;28;20504;-85
2022/05/31 12:34:20;;;;;;;1.55;0.52;;;25.80;57.80;;;;;;5028861;28;20030;-77
2022/05/31 12:37:03;;;;;;;1.48;0.60;;;26.00;51.90;;;;;;5028190;28;20111;-79
2022/05/31 12:39:33;;;;;;;2.60;0.65;;;26.00;54.10;;;;;;5027879;28;20626;-81
2022/05/31 12:42:14;;;;;;;1.77;0.60;;;26.20;56.10;;;;;;5026702;28;20030;-82
2022/05/31 12:44:42;;;;;;;3.00;0.65;;;26.30;52.30;;;;;;5027837;28;20116;-78
2022/05/31 12:47:22;;;;;;;0.50;0.45;;;26.40;52.50;;;;;;5027098;28;20083;-81
2022/05/31 12:49:53;;;;;;;2.10;0.70;;;26.50;51.10;;;;;;5028388;28;20029;-82
2022/05/31 12:55:00;;;;;;;1.92;0.50;;;26.50;51.40;;;;;;5025574;28;20144;-78
2022/05/31 12:58:26;;;;;;;1.40;0.70;;;26.40;52.00;;;;;;5026860;28;20037;-81
2022/05/31 13:00:34;;;;;;;0.90;0.50;;;26.30;54.60;;;;;;5026639;28;20477;-78
2022/05/31 13:03:05;;;;;;;4.20;0.60;;;26.20;51.40;;;;;;5025599;28;20033;-79
2022/05/31 13:05:38;;;;;;;2.95;0.73;;;26.40;52.20;;;;;;5035471;28;20033;-79
2022/05/31 13:08:22;;;;;;;0.95;0.50;;;26.50;50.50;;;;;;5031671;28;20095;-79
2022/05/31 13:19:43;;;;;;;0.65;0.50;;;26.90;47.30;;;;;;5027449;28;20040;-79
2022/05/31 13:22:12;;;;;;;2.33;0.88;;;26.10;52.20;;;;;;5026651;28;20033;-77
2022/05/31 13:24:45;;;;;;;1.70;1.13;;;25.70;49.50;;;;;;5027326;28;20068;-79
2022/05/31 13:27:14;;;;;;;2.10;0.55;;;25.70;50.80;;;;;;5026146;28;20508;-79
2022/05/31 13:29:39;;;;;;;1.65;0.60;;;25.70;51.30;;;;;;5027592;28;20041;-79
2022/05/31 13:32:10;;;;;;;3.80;0.80;;;25.80;49.60;;;;;;5027350;28;20033;-84
2022/05/31 13:34:42;;;;;;;1.42;0.50;;;25.70;50.00;;;;;;5027923;28;20060;-82
2022/05/31 13:37:18;;;;;;;1.52;0.75;;;25.60;51.40;;;;;;5027780;28;20025;-80
2022/05/31 13:39:45;;;;;;;2.25;0.52;;;25.50;48.70;;;;;;5028064;28;20188;-81
2022/05/31 13:42:31;;;;;;;1.73;1.30;;;25.50;49.80;;;;;;5026039;28;20056;-80
2022/05/31 13:45:22;;;;;;;0.80;0.50;;;25.70;49.00;;;;;;5027817;28;20030;-78